PWSweather.com
Personal Weather Stations
Station Observations
PWSLORIS
The Farm At Fox Bay, Loris, SC 29569

The Farm At Fox BayLoris, SC 29569

Lat: 34.067097, Lon: -78.86907

Elevation: 108

Station Type: Davis Vantage Pro2 with 24 hr. FARS and solar

http://www.lorisweather.com

High Low Average
Temperature 88.9°F31.6°C 75.4°F24.1°C 79.9°F26.6°C
Dew Point 78.2°F25.7°C 73.0°F22.8°C 75.5°F24.2°C
Winds 4.6 mph 7.4 kmh Calm Calm Calm SSWCalm SSW
Wind Gusts 6.9 mph11.1 kmh -- 1.0 mph1.6 kmh
Humidity 96% 66% 87%
Pressure 30.04 in1017.3 mb 29.96 in1014.6 mb -
Precipitation 0.03 in0.8 mm - -
Hour Temp Dew Point Humidity Winds Wind Gusts Pressure Precip Precip Rate Daily Precip Total
12:00 AM 77.9°F25.5°C 73.7°F23.2°C 87% Calm Calm -- 30.00 in1015.9 mb - 0.00 in0.0 mm 0.00 in0.0 mm
12:15 AM 77.4°F25.2°C 73.6°F23.1°C 88% Calm Calm -- 30.01 in1016.3 mb - 0.00 in0.0 mm 0.00 in0.0 mm
12:30 AM 77.1°F25.1°C 73.6°F23.1°C 89% Calm Calm -- 30.00 in1015.9 mb - 0.00 in0.0 mm 0.00 in0.0 mm
12:45 AM 76.8°F24.9°C 73.6°F23.1°C 90% Calm Calm -- 30.01 in1016.3 mb - 0.00 in0.0 mm 0.00 in0.0 mm
01:00 AM 76.6°F24.8°C 73.4°F23.0°C 90% Calm Calm -- 30.01 in1016.3 mb - 0.00 in0.0 mm 0.00 in0.0 mm
01:15 AM 76.5°F24.7°C 73.7°F23.2°C 91% Calm Calm -- 30.00 in1015.9 mb - 0.00 in0.0 mm 0.00 in0.0 mm
01:30 AM 76.4°F24.7°C 73.6°F23.1°C 91% Calm Calm -- 29.99 in1015.6 mb - 0.00 in0.0 mm 0.00 in0.0 mm
01:45 AM 76.3°F24.6°C 73.8°F23.2°C 92% Calm Calm -- 29.99 in1015.6 mb - 0.00 in0.0 mm 0.00 in0.0 mm
02:00 AM 76.1°F24.5°C 73.6°F23.1°C 92% Calm Calm -- 29.99 in1015.6 mb - 0.00 in0.0 mm 0.00 in0.0 mm
02:15 AM 76.1°F24.5°C 73.6°F23.1°C 92% Calm Calm -- 29.99 in1015.6 mb - 0.00 in0.0 mm 0.00 in0.0 mm
02:30 AM 76.1°F24.5°C 73.6°F23.1°C 92% Calm Calm -- 29.98 in1015.2 mb - 0.00 in0.0 mm 0.00 in0.0 mm
02:45 AM 76.0°F24.4°C 73.5°F23.1°C 92% Calm Calm -- 29.98 in1015.2 mb - 0.00 in0.0 mm 0.00 in0.0 mm
03:00 AM 75.9°F24.4°C 73.5°F23.1°C 92% Calm Calm -- 29.98 in1015.2 mb - 0.00 in0.0 mm 0.00 in0.0 mm
03:15 AM 75.9°F24.4°C 73.4°F23.0°C 92% Calm Calm -- 29.98 in1015.2 mb - 0.00 in0.0 mm 0.00 in0.0 mm
03:30 AM 75.8°F24.3°C 73.3°F22.9°C 92% 1.2 mph NW1.9 kmh NW 3.5 mph5.6 kmh 29.97 in1014.9 mb - 0.00 in0.0 mm 0.00 in0.0 mm
03:45 AM 75.8°F24.3°C 73.3°F22.9°C 92% Calm Calm -- 29.96 in1014.6 mb - 0.00 in0.0 mm 0.00 in0.0 mm
04:00 AM 75.8°F24.3°C 73.3°F22.9°C 92% Calm Calm -- 29.96 in1014.6 mb - 0.00 in0.0 mm 0.00 in0.0 mm
04:15 AM 75.7°F24.3°C 73.2°F22.9°C 92% Calm Calm -- 29.96 in1014.6 mb - 0.00 in0.0 mm 0.00 in0.0 mm
04:30 AM 75.5°F24.2°C 73.0°F22.8°C 92% Calm Calm -- 29.96 in1014.6 mb - 0.00 in0.0 mm 0.00 in0.0 mm
04:45 AM 75.4°F24.1°C 73.2°F22.9°C 93% Calm Calm -- 29.96 in1014.6 mb - 0.00 in0.0 mm 0.00 in0.0 mm
05:00 AM 75.4°F24.1°C 73.2°F22.9°C 93% Calm Calm -- 29.97 in1014.9 mb - 0.00 in0.0 mm 0.00 in0.0 mm
05:15 AM 75.4°F24.1°C 73.3°F22.9°C 93% Calm Calm -- 29.97 in1014.9 mb - 0.00 in0.0 mm 0.00 in0.0 mm
05:30 AM 75.5°F24.2°C 73.3°F22.9°C 93% Calm Calm -- 29.98 in1015.2 mb - 0.00 in0.0 mm 0.00 in0.0 mm
05:45 AM 75.5°F24.2°C 73.3°F22.9°C 93% Calm Calm -- 29.98 in1015.2 mb - 0.00 in0.0 mm 0.00 in0.0 mm
06:00 AM 75.4°F24.1°C 73.2°F22.9°C 93% Calm Calm -- 29.98 in1015.2 mb - 0.00 in0.0 mm 0.00 in0.0 mm
06:15 AM 75.4°F24.1°C 73.2°F22.9°C 93% Calm Calm -- 29.99 in1015.6 mb - 0.00 in0.0 mm 0.00 in0.0 mm
06:30 AM 75.5°F24.2°C 73.3°F22.9°C 93% Calm Calm -- 29.99 in1015.6 mb - 0.00 in0.0 mm 0.00 in0.0 mm
06:45 AM 75.5°F24.2°C 73.3°F22.9°C 93% Calm Calm -- 29.99 in1015.6 mb - 0.00 in0.0 mm 0.00 in0.0 mm
07:00 AM 75.5°F24.2°C 73.3°F22.9°C 93% Calm Calm -- 29.99 in1015.6 mb - 0.00 in0.0 mm 0.00 in0.0 mm
07:15 AM 75.7°F24.3°C 73.5°F23.1°C 93% Calm Calm -- 30.00 in1015.9 mb - 0.00 in0.0 mm 0.00 in0.0 mm
07:30 AM 75.7°F24.3°C 73.5°F23.1°C 93% Calm Calm -- 30.00 in1015.9 mb - 0.00 in0.0 mm 0.00 in0.0 mm
07:45 AM 75.8°F24.3°C 73.6°F23.1°C 93% 1.2 mph S1.9 kmh S 3.5 mph5.6 kmh 30.00 in1015.9 mb - 0.00 in0.0 mm 0.00 in0.0 mm
08:00 AM 76.0°F24.4°C 73.8°F23.2°C 93% Calm Calm -- 30.00 in1015.9 mb - 0.00 in0.0 mm 0.00 in0.0 mm
08:15 AM 76.3°F24.6°C 74.1°F23.4°C 93% Calm Calm -- 30.00 in1015.9 mb - 0.00 in0.0 mm 0.00 in0.0 mm
08:30 AM 76.5°F24.7°C 74.0°F23.3°C 92% Calm Calm -- 30.00 in1015.9 mb - 0.00 in0.0 mm 0.00 in0.0 mm
08:45 AM 76.9°F24.9°C 74.4°F23.6°C 92% Calm Calm -- 30.01 in1016.3 mb - 0.00 in0.0 mm 0.00 in0.0 mm
09:00 AM 77.3°F25.2°C 74.4°F23.6°C 91% Calm Calm 3.5 mph5.6 kmh 30.02 in1016.6 mb - 0.00 in0.0 mm 0.00 in0.0 mm
09:15 AM 77.5°F25.3°C 74.7°F23.7°C 91% 1.2 mph W1.9 kmh W 3.5 mph5.6 kmh 30.02 in1016.6 mb - 0.00 in0.0 mm 0.00 in0.0 mm
09:30 AM 77.8°F25.4°C 74.7°F23.7°C 90% Calm Calm 4.6 mph7.4 kmh 30.02 in1016.6 mb - 0.00 in0.0 mm 0.00 in0.0 mm
09:45 AM 77.9°F25.5°C 74.4°F23.6°C 89% Calm Calm -- 30.03 in1016.9 mb - 0.00 in0.0 mm 0.00 in0.0 mm
10:00 AM 77.7°F25.4°C 74.5°F23.6°C 90% Calm Calm -- 30.03 in1016.9 mb - 0.00 in0.0 mm 0.00 in0.0 mm
10:15 AM 77.8°F25.4°C 74.6°F23.7°C 90% Calm Calm -- 30.04 in1017.3 mb - 0.00 in0.0 mm 0.00 in0.0 mm
10:30 AM 77.2°F25.1°C 74.4°F23.6°C 91% Calm Calm -- 30.04 in1017.3 mb - 0.00 in0.0 mm 0.00 in0.0 mm
10:45 AM 76.5°F24.7°C 74.6°F23.7°C 94% Calm Calm -- 30.04 in1017.3 mb - 0.01 in0.3 mm 0.01 in0.3 mm
11:00 AM 76.6°F24.8°C 75.1°F23.9°C 95% Calm Calm -- 30.04 in1017.3 mb - 0.01 in0.3 mm 0.02 in0.5 mm
11:15 AM 77.2°F25.1°C 76.0°F24.4°C 96% Calm Calm -- 30.04 in1017.3 mb - 0.01 in0.3 mm 0.03 in0.8 mm
11:30 AM 77.9°F25.5°C 76.0°F24.4°C 94% 1.2 mph W1.9 kmh W -- 30.04 in1017.3 mb - 0.00 in0.0 mm 0.03 in0.8 mm
11:45 AM 78.9°F26.1°C 77.0°F25.0°C 94% Calm Calm -- 30.04 in1017.3 mb - 0.00 in0.0 mm 0.03 in0.8 mm
12:00 PM 81.6°F27.6°C 78.0°F25.6°C 89% Calm Calm -- 30.03 in1016.9 mb - 0.00 in0.0 mm 0.03 in0.8 mm
12:15 PM 81.2°F27.3°C 78.0°F25.6°C 90% Calm Calm -- 30.03 in1016.9 mb - 0.00 in0.0 mm 0.03 in0.8 mm
12:30 PM 83.9°F28.8°C 77.8°F25.4°C 82% Calm Calm -- 30.03 in1016.9 mb - 0.00 in0.0 mm 0.03 in0.8 mm
12:45 PM 84.1°F28.9°C 77.7°F25.4°C 81% 2.3 mph N3.7 kmh N 3.5 mph5.6 kmh 30.02 in1016.6 mb - 0.00 in0.0 mm 0.03 in0.8 mm
01:00 PM 84.5°F29.2°C 77.7°F25.4°C 80% 1.2 mph W1.9 kmh W 3.5 mph5.6 kmh 30.02 in1016.6 mb - 0.00 in0.0 mm 0.03 in0.8 mm
01:15 PM 85.0°F29.4°C 76.9°F24.9°C 77% Calm Calm 3.5 mph5.6 kmh 30.01 in1016.3 mb - 0.00 in0.0 mm 0.03 in0.8 mm
01:30 PM 85.0°F29.4°C 77.3°F25.2°C 78% Calm Calm 4.6 mph7.4 kmh 30.01 in1016.3 mb - 0.00 in0.0 mm 0.03 in0.8 mm
01:45 PM 86.2°F30.1°C 76.6°F24.8°C 73% Calm Calm 4.6 mph7.4 kmh 30.01 in1016.3 mb - 0.00 in0.0 mm 0.03 in0.8 mm
02:00 PM 87.3°F30.7°C 77.6°F25.3°C 73% 1.2 mph NW1.9 kmh NW 3.5 mph5.6 kmh 30.00 in1015.9 mb - 0.00 in0.0 mm 0.03 in0.8 mm
02:15 PM 86.6°F30.3°C 77.7°F25.4°C 75% 1.2 mph S1.9 kmh S 4.6 mph7.4 kmh 30.00 in1015.9 mb - 0.00 in0.0 mm 0.03 in0.8 mm
02:30 PM 87.0°F30.6°C 77.3°F25.2°C 73% 1.2 mph NW1.9 kmh NW 6.9 mph11.1 kmh 29.99 in1015.6 mb - 0.00 in0.0 mm 0.03 in0.8 mm
02:45 PM 87.8°F31.0°C 77.2°F25.1°C 71% Calm Calm -- 29.99 in1015.6 mb - 0.00 in0.0 mm 0.03 in0.8 mm
03:00 PM 87.5°F30.8°C 76.9°F24.9°C 71% Calm Calm 3.5 mph5.6 kmh 29.98 in1015.2 mb - 0.00 in0.0 mm 0.03 in0.8 mm
03:15 PM 87.6°F30.9°C 78.2°F25.7°C 74% Calm Calm 3.5 mph5.6 kmh 29.97 in1014.9 mb - 0.00 in0.0 mm 0.03 in0.8 mm
03:30 PM 88.4°F31.3°C 76.5°F24.7°C 68% Calm Calm 3.5 mph5.6 kmh 29.97 in1014.9 mb - 0.00 in0.0 mm 0.03 in0.8 mm
03:45 PM 87.8°F31.0°C 77.3°F25.2°C 71% 1.2 mph S1.9 kmh S 3.5 mph5.6 kmh 29.96 in1014.6 mb - 0.00 in0.0 mm 0.03 in0.8 mm
04:00 PM 88.9°F31.6°C 76.1°F24.5°C 66% Calm Calm 1.2 mph1.9 kmh 29.96 in1014.6 mb - 0.00 in0.0 mm 0.03 in0.8 mm
04:15 PM 88.4°F31.3°C 77.3°F25.2°C 70% Calm Calm -- 29.96 in1014.6 mb - 0.00 in0.0 mm 0.03 in0.8 mm
04:30 PM 86.3°F30.2°C 77.4°F25.2°C 75% Calm Calm 3.5 mph5.6 kmh 29.96 in1014.6 mb - 0.00 in0.0 mm 0.03 in0.8 mm
04:45 PM 86.7°F30.4°C 77.8°F25.4°C 75% Calm Calm 2.3 mph3.7 kmh 29.96 in1014.6 mb - 0.00 in0.0 mm 0.03 in0.8 mm
05:00 PM 85.5°F29.7°C 77.5°F25.3°C 77% Calm Calm 3.5 mph5.6 kmh 29.96 in1014.6 mb - 0.00 in0.0 mm 0.03 in0.8 mm
05:15 PM 86.9°F30.5°C 78.0°F25.6°C 75% Calm Calm 1.2 mph1.9 kmh 29.97 in1014.9 mb - 0.00 in0.0 mm 0.03 in0.8 mm
05:30 PM 85.5°F29.7°C 77.4°F25.2°C 77% 4.6 mph S7.4 kmh S 6.9 mph11.1 kmh 29.96 in1014.6 mb - 0.00 in0.0 mm 0.03 in0.8 mm
05:45 PM 87.1°F30.6°C 78.2°F25.7°C 75% Calm Calm -- 29.97 in1014.9 mb - 0.00 in0.0 mm 0.03 in0.8 mm
06:00 PM 86.4°F30.2°C 76.7°F24.8°C 73% 2.3 mph S3.7 kmh S 4.6 mph7.4 kmh 29.96 in1014.6 mb - 0.00 in0.0 mm 0.03 in0.8 mm
06:15 PM 86.6°F30.3°C 76.5°F24.7°C 72% 3.5 mph S5.6 kmh S 3.5 mph5.6 kmh 29.96 in1014.6 mb - 0.00 in0.0 mm 0.03 in0.8 mm
06:30 PM 85.1°F29.5°C 77.5°F25.3°C 78% 1.2 mph S1.9 kmh S 5.8 mph9.3 kmh 29.97 in1014.9 mb - 0.00 in0.0 mm 0.03 in0.8 mm
06:45 PM 84.5°F29.2°C 77.6°F25.3°C 80% 1.2 mph SSE1.9 kmh SSE 2.3 mph3.7 kmh 29.97 in1014.9 mb - 0.00 in0.0 mm 0.03 in0.8 mm
07:00 PM 83.6°F28.7°C 77.2°F25.1°C 81% Calm Calm -- 29.97 in1014.9 mb - 0.00 in0.0 mm 0.03 in0.8 mm
07:15 PM 82.2°F27.9°C 76.9°F24.9°C 84% Calm Calm -- 29.97 in1014.9 mb - 0.00 in0.0 mm 0.03 in0.8 mm
07:30 PM 81.2°F27.3°C 76.6°F24.8°C 86% Calm Calm -- 29.98 in1015.2 mb - 0.00 in0.0 mm 0.03 in0.8 mm
07:45 PM 80.5°F26.9°C 76.6°F24.8°C 88% Calm Calm -- 29.98 in1015.2 mb - 0.00 in0.0 mm 0.03 in0.8 mm
08:00 PM 79.8°F26.6°C 75.9°F24.4°C 88% Calm Calm -- 29.98 in1015.2 mb - 0.00 in0.0 mm 0.03 in0.8 mm
08:15 PM 79.5°F26.4°C 76.3°F24.6°C 90% Calm Calm -- 29.98 in1015.2 mb - 0.00 in0.0 mm 0.03 in0.8 mm
08:30 PM 79.5°F26.4°C 76.0°F24.4°C 89% Calm Calm -- 29.98 in1015.2 mb - 0.00 in0.0 mm 0.03 in0.8 mm
08:45 PM 79.6°F26.4°C 76.1°F24.5°C 89% Calm Calm -- 29.99 in1015.6 mb - 0.00 in0.0 mm 0.03 in0.8 mm
09:00 PM 79.5°F26.4°C 76.0°F24.4°C 89% Calm Calm -- 29.99 in1015.6 mb - 0.00 in0.0 mm 0.03 in0.8 mm
09:15 PM 79.7°F26.5°C 76.2°F24.6°C 89% Calm Calm 1.2 mph1.9 kmh 29.99 in1015.6 mb - 0.00 in0.0 mm 0.03 in0.8 mm
09:30 PM 79.7°F26.5°C 76.5°F24.7°C 90% Calm Calm -- 30.00 in1015.9 mb - 0.00 in0.0 mm 0.03 in0.8 mm
09:45 PM 79.5°F26.4°C 76.3°F24.6°C 90% Calm Calm -- 30.00 in1015.9 mb - 0.00 in0.0 mm 0.03 in0.8 mm
10:00 PM 79.2°F26.2°C 76.3°F24.6°C 91% Calm Calm -- 30.01 in1016.3 mb - 0.00 in0.0 mm 0.03 in0.8 mm
10:15 PM 79.0°F26.1°C 76.1°F24.5°C 91% Calm Calm -- 30.01 in1016.3 mb - 0.00 in0.0 mm 0.03 in0.8 mm
10:30 PM 78.7°F25.9°C 75.9°F24.4°C 91% Calm Calm -- 30.01 in1016.3 mb - 0.00 in0.0 mm 0.03 in0.8 mm
10:45 PM 78.5°F25.8°C 76.0°F24.4°C 92% Calm Calm -- 30.02 in1016.6 mb - 0.00 in0.0 mm 0.03 in0.8 mm
11:00 PM 78.3°F25.7°C 76.1°F24.5°C 93% Calm Calm -- 30.02 in1016.6 mb - 0.00 in0.0 mm 0.03 in0.8 mm
11:15 PM 78.0°F25.6°C 75.8°F24.3°C 93% Calm Calm -- 30.02 in1016.6 mb - 0.00 in0.0 mm 0.03 in0.8 mm
11:30 PM 77.8°F25.4°C 75.9°F24.4°C 94% Calm Calm -- 30.02 in1016.6 mb - 0.00 in0.0 mm 0.03 in0.8 mm
11:45 PM 77.6°F25.3°C 75.7°F24.3°C 94% Calm Calm -- 30.02 in1016.6 mb - 0.00 in0.0 mm 0.03 in0.8 mm